Time;durP1;ratioP1;P1;durP2;ratioP2;P2;SDS_P1;SDS_P2;PMS_P1;PMS_P2;Temp;Humidity;BMP_temperature;BMP_pressure;BME280_temperature;BME280_humidity;BME280_pressure;Samples;Min_cycle;Max_cycle;Signal;HPM_P1;HPM_P2
2022/07/27 00:00:03;;;;;;;;;;;;;;;26.10;45.46;99035.69;3160083;28;19924;-69
2022/07/27 00:01:34;;;;;;;;;;;;;;;26.14;45.53;99032.66;3162344;28;19928;-70
2022/07/27 00:03:06;;;;;;;;;;;;;;;26.14;45.65;99043.31;3166976;28;19924;-69
2022/07/27 00:04:37;;;;;;;;;;;;;;;26.13;45.63;99045.16;3167996;28;20360;-69
2022/07/27 00:06:09;;;;;;;;;;;;;;;26.14;45.10;99046.81;3168427;28;20286;-69
2022/07/27 00:07:41;;;;;;;;;;;;;;;26.16;45.34;99047.47;3169051;28;19924;-69
2022/07/27 00:09:14;;;;;;;;;;;;;;;26.16;45.36;99039.44;3171150;28;19932;-69
2022/07/27 00:10:45;;;;;;;;;;;;;;;26.16;45.54;99038.63;3161578;28;19928;-68
2022/07/27 00:12:17;;;;;;;;;;;;;;;26.14;45.91;99046.00;3169253;28;19927;-68
2022/07/27 00:13:48;;;;;;;;;;;;;;;26.09;45.74;99055.41;3169145;28;19931;-69
2022/07/27 00:15:19;;;;;;;;;;;;;;;26.07;45.77;99056.59;3163947;28;19927;-67
2022/07/27 00:16:50;;;;;;;;;;;;;;;26.05;46.00;99056.75;3170251;28;20325;-69
2022/07/27 00:18:22;;;;;;;;;;;;;;;26.03;46.05;99055.28;3166730;28;20605;-69
2022/07/27 00:19:54;;;;;;;;;;;;;;;25.97;46.46;99058.72;3165764;28;19947;-69
2022/07/27 00:21:25;;;;;;;;;;;;;;;25.94;46.94;99057.28;3158137;28;20290;-69
2022/07/27 00:22:57;;;;;;;;;;;;;;;25.92;46.78;99058.47;3166771;28;20014;-70
2022/07/27 00:24:30;;;;;;;;;;;;;;;25.89;47.18;99050.84;3164257;28;19924;-70
2022/07/27 00:26:02;;;;;;;;;;;;;;;25.89;47.06;99057.00;3166468;28;20312;-69
2022/07/27 00:27:34;;;;;;;;;;;;;;;25.87;47.64;99061.69;3164071;28;20651;-70
2022/07/27 00:29:05;;;;;;;;;;;;;;;25.86;47.76;99057.38;3167488;28;19927;-69
2022/07/27 00:30:36;;;;;;;;;;;;;;;25.79;48.45;99059.94;3167580;28;19976;-69
2022/07/27 00:32:08;;;;;;;;;;;;;;;25.71;48.92;99067.19;3168143;28;19987;-68
2022/07/27 00:33:39;;;;;;;;;;;;;;;25.60;49.43;99066.63;3168943;28;19924;-68
2022/07/27 00:35:11;;;;;;;;;;;;;;;25.55;49.01;99063.69;3169762;28;19924;-69
2022/07/27 00:36:43;;;;;;;;;;;;;;;25.52;48.94;99061.38;3159591;28;19924;-68
2022/07/27 00:38:15;;;;;;;;;;;;;;;25.51;49.51;99065.06;3170858;28;19927;-69
2022/07/27 00:39:48;;;;;;;;;;;;;;;25.50;49.13;99067.94;3170134;28;20441;-69
2022/07/27 00:41:19;;;;;;;;;;;;;;;25.49;48.77;99058.25;3164144;28;20483;-68
2022/07/27 00:42:51;;;;;;;;;;;;;;;25.49;49.12;99061.75;3164820;28;19954;-68
2022/07/27 00:44:26;;;;;;;;;;;;;;;25.47;49.15;99061.13;3165009;28;19939;-69
2022/07/27 00:45:56;;;;;;;;;;;;;;;25.46;49.21;99069.28;3165738;28;19924;-69
2022/07/27 00:47:28;;;;;;;;;;;;;;;25.47;49.07;99068.25;3166273;28;19931;-68
2022/07/27 00:49:00;;;;;;;;;;;;;;;25.43;48.86;99065.16;3166690;28;19928;-69
2022/07/27 00:50:30;;;;;;;;;;;;;;;25.47;49.08;99074.44;3167905;28;19924;-68
2022/07/27 00:52:02;;;;;;;;;;;;;;;25.45;49.29;99072.97;3158756;28;20427;-68
2022/07/27 00:53:34;;;;;;;;;;;;;;;25.38;50.06;99071.03;3159000;28;19928;-69
2022/07/27 00:55:07;;;;;;;;;;;;;;;25.27;50.33;99071.47;3158059;28;20011;-69
2022/07/27 00:56:40;;;;;;;;;;;;;;;25.23;50.13;99066.69;3160590;28;19928;-69
2022/07/27 00:58:11;;;;;;;;;;;;;;;25.17;50.88;99069.09;3166826;28;19943;-68
2022/07/27 00:59:43;;;;;;;;;;;;;;;25.08;50.97;99070.13;3167057;28;20473;-68
2022/07/27 01:01:14;;;;;;;;;;;;;;;25.06;51.04;99066.81;3163707;28;19939;-69
2022/07/27 01:02:45;;;;;;;;;;;;;;;25.07;50.74;99068.47;3169335;28;19931;-69
2022/07/27 01:04:17;;;;;;;;;;;;;;;25.08;50.64;99069.28;3169780;28;20380;-68
2022/07/27 01:05:49;;;;;;;;;;;;;;;25.09;50.58;99070.97;3168843;28;20290;-68
2022/07/27 01:07:21;;;;;;;;;;;;;;;25.12;50.27;99068.75;3163906;28;19928;-69
2022/07/27 01:09:55;;;;;;;;;;;;;;;25.15;49.91;99072.94;3169767;28;19928;-68
2022/07/27 01:10:45;;;;;;;;;;;;;;;25.18;49.84;99068.06;3165673;28;20317;-69
2022/07/27 01:12:18;;;;;;;;;;;;;;;25.21;49.58;99077.53;3161143;28;19934;-68
2022/07/27 01:13:49;;;;;;;;;;;;;;;25.21;49.56;99074.88;3164392;28;20378;-69
2022/07/27 01:15:20;;;;;;;;;;;;;;;25.23;49.72;99072.00;3162760;28;19924;-68
2022/07/27 01:16:52;;;;;;;;;;;;;;;25.19;50.10;99071.56;3160754;28;20350;-68
2022/07/27 01:18:27;;;;;;;;;;;;;;;25.21;49.89;99068.72;3166225;28;19951;-69
2022/07/27 01:19:59;;;;;;;;;;;;;;;25.21;49.59;99074.88;3151603;28;19925;-68
2022/07/27 01:21:33;;;;;;;;;;;;;;;25.23;49.31;99069.34;3160671;28;20009;-68
2022/07/27 01:23:05;;;;;;;;;;;;;;;25.23;49.40;99072.88;3168396;28;20326;-68
2022/07/27 01:24:37;;;;;;;;;;;;;;;25.26;49.16;99068.97;3164660;28;20348;-68
2022/07/27 01:26:08;;;;;;;;;;;;;;;25.27;49.20;99078.66;3167640;28;19924;-68
2022/07/27 01:27:40;;;;;;;;;;;;;;;25.27;49.27;99078.66;3168561;28;19999;-68
2022/07/27 01:29:11;;;;;;;;;;;;;;;25.27;49.43;99074.16;3169334;28;20336;-68
2022/07/27 01:30:42;;;;;;;;;;;;;;;25.27;49.36;99078.66;3169894;28;19928;-68
2022/07/27 01:32:13;;;;;;;;;;;;;;;25.27;49.51;99079.47;3164274;28;19935;-68
2022/07/27 01:33:45;;;;;;;;;;;;;;;25.26;49.88;99077.84;3158142;28;20333;-68
2022/07/27 01:35:15;;;;;;;;;;;;;;;25.22;50.13;99086.34;3163631;28;19924;-68
2022/07/27 01:36:48;;;;;;;;;;;;;;;25.17;50.03;99081.56;3158012;28;20014;-68
2022/07/27 01:38:19;;;;;;;;;;;;;;;25.16;49.76;99083.41;3166580;28;19927;-68
2022/07/27 01:39:50;;;;;;;;;;;;;;;25.15;49.83;99076.41;3165892;28;19924;-68
2022/07/27 01:41:22;;;;;;;;;;;;;;;25.15;49.55;99081.75;3165995;28;19948;-68
2022/07/27 01:42:53;;;;;;;;;;;;;;;25.16;49.75;99082.56;3166788;28;19982;-68
2022/07/27 01:44:24;;;;;;;;;;;;;;;25.16;49.53;99077.25;3167760;28;20364;-68
2022/07/27 01:45:56;;;;;;;;;;;;;;;25.14;49.39;99080.09;3170230;28;19924;-68
2022/07/27 01:47:27;;;;;;;;;;;;;;;25.13;49.79;99074.91;3170273;28;19935;-69
2022/07/27 01:48:59;;;;;;;;;;;;;;;25.12;49.49;99076.75;3169157;28;19924;-69
2022/07/27 01:50:29;;;;;;;;;;;;;;;25.09;50.02;99074.44;3161589;28;20322;-70
2022/07/27 01:52:02;;;;;;;;;;;;;;;25.09;49.55;99071.78;3161544;28;19932;-68
2022/07/27 01:53:34;;;;;;;;;;;;;;;25.09;49.79;99074.44;3162914;28;20288;-68
2022/07/27 01:55:07;;;;;;;;;;;;;;;25.05;50.39;99074.97;3164408;28;20319;-69
2022/07/27 01:56:38;;;;;;;;;;;;;;;25.01;50.20;99074.50;3164864;28;20316;-69
2022/07/27 01:58:10;;;;;;;;;;;;;;;24.98;50.33;99072.22;3170850;28;20348;-69
2022/07/27 01:59:41;;;;;;;;;;;;;;;24.95;50.56;99077.91;3171163;28;20420;-69
2022/07/27 02:01:14;;;;;;;;;;;;;;;24.87;51.15;99077.97;3167112;28;21163;-68
2022/07/27 02:02:46;;;;;;;;;;;;;;;24.78;51.13;99082.50;3170995;28;19931;-69
2022/07/27 02:04:18;;;;;;;;;;;;;;;24.67;51.56;99081.13;3167047;28;20346;-68
2022/07/27 02:05:49;;;;;;;;;;;;;;;24.60;52.04;99092.63;3166362;28;20607;-68
2022/07/27 02:07:21;;;;;;;;;;;;;;;24.55;51.77;99087.00;3165521;28;19924;-69
2022/07/27 02:08:53;;;;;;;;;;;;;;;24.57;51.55;99083.16;3167238;28;20288;-68
2022/07/27 02:10:24;;;;;;;;;;;;;;;24.61;51.38;99086.28;3163678;28;20046;-68
2022/07/27 02:13:44;;;;;;;;;;;;;;;24.64;50.74;99080.63;3168565;28;20495;-69
2022/07/27 02:15:18;;;;;;;;;;;;;;;24.63;50.87;99081.63;3169292;28;19957;-69
2022/07/27 02:16:48;;;;;;;;;;;;;;;24.61;50.55;99088.97;3168897;28;20480;-69
2022/07/27 02:18:20;;;;;;;;;;;;;;;24.57;50.95;99082.34;3165997;28;19928;-69
2022/07/27 02:19:51;;;;;;;;;;;;;;;24.55;50.83;99090.53;3170491;28;19924;-69
2022/07/27 02:21:23;;;;;;;;;;;;;;;24.53;50.84;99087.19;3161171;28;19978;-69
2022/07/27 02:22:56;;;;;;;;;;;;;;;24.49;51.00;99089.38;3171869;28;20328;-70
2022/07/27 02:24:26;;;;;;;;;;;;;;;24.47;51.07;99090.56;3171183;28;19924;-70
2022/07/27 02:25:58;;;;;;;;;;;;;;;24.44;51.18;99082.94;3161236;28;20423;-71
2022/07/27 02:27:30;;;;;;;;;;;;;;;24.40;51.30;99081.59;3162490;28;19929;-69
2022/07/27 02:29:01;;;;;;;;;;;;;;;24.39;50.90;99086.06;3166236;28;20022;-70
2022/07/27 02:30:32;;;;;;;;;;;;;;;24.39;50.83;99085.25;3166590;28;20393;-71
2022/07/27 02:32:03;;;;;;;;;;;;;;;24.36;51.19;99085.59;3163464;28;19928;-70
2022/07/27 02:33:35;;;;;;;;;;;;;;;24.34;51.15;99087.59;3168826;28;19928;-69
2022/07/27 02:35:07;;;;;;;;;;;;;;;24.30;51.19;99085.28;3169556;28;20397;-71
2022/07/27 02:36:38;;;;;;;;;;;;;;;24.27;51.33;99085.66;3159032;28;20023;-68
2022/07/27 02:38:11;;;;;;;;;;;;;;;24.25;51.15;99084.16;3149762;28;19968;-69
2022/07/27 02:39:43;;;;;;;;;;;;;;;24.20;51.29;99081.22;3151772;28;19925;-68
2022/07/27 02:41:14;;;;;;;;;;;;;;;24.19;51.34;99085.69;3159680;28;19924;-68
2022/07/27 02:42:46;;;;;;;;;;;;;;;24.12;52.04;99089.22;3166714;28;19924;-68
2022/07/27 02:44:19;;;;;;;;;;;;;;;24.11;51.64;99079.56;3166155;28;19931;-69
2022/07/27 02:45:50;;;;;;;;;;;;;;;24.10;51.54;99083.25;3164290;28;19927;-70
2022/07/27 02:47:22;;;;;;;;;;;;;;;24.09;51.35;99085.06;3163116;28;19928;-70
2022/07/27 02:48:53;;;;;;;;;;;;;;;24.10;51.44;99078.75;3163415;28;20410;-70
2022/07/27 02:50:25;;;;;;;;;;;;;;;24.08;51.90;99083.44;3167656;28;19934;-70
2022/07/27 02:51:56;;;;;;;;;;;;;;;24.06;51.87;99083.59;3163224;28;19924;-69
2022/07/27 02:53:28;;;;;;;;;;;;;;;24.06;51.70;99088.91;3163235;28;20421;-70
2022/07/27 02:55:00;;;;;;;;;;;;;;;24.03;51.78;99086.59;3161521;28;20302;-70
2022/07/27 02:56:31;;;;;;;;;;;;;;;23.99;51.85;99081.81;3158147;28;19925;-69
2022/07/27 02:58:03;;;;;;;;;;;;;;;24.03;51.69;99096.41;3166580;28;19924;-70
2022/07/27 02:59:34;;;;;;;;;;;;;;;24.00;51.96;99094.09;3165429;28;19935;-70
2022/07/27 03:01:06;;;;;;;;;;;;;;;23.96;52.48;99090.97;3164067;28;19924;-70
2022/07/27 03:02:37;;;;;;;;;;;;;;;23.94;52.38;99092.97;3165966;28;19931;-70
2022/07/27 03:04:09;;;;;;;;;;;;;;;23.97;52.13;99094.44;3167524;28;19933;-70
2022/07/27 03:05:40;;;;;;;;;;;;;;;24.00;52.04;99099.41;3164653;28;20329;-70
2022/07/27 03:07:12;;;;;;;;;;;;;;;24.00;52.11;99105.56;3166083;28;19935;-70
2022/07/27 03:08:45;;;;;;;;;;;;;;;23.97;52.52;99108.56;3168354;28;20459;-70
2022/07/27 03:10:15;;;;;;;;;;;;;;;23.96;52.08;99106.91;3164215;28;19935;-70
2022/07/27 03:11:47;;;;;;;;;;;;;;;23.95;52.72;99093.78;3162848;28;19924;-68
2022/07/27 03:13:18;;;;;;;;;;;;;;;23.95;52.53;99102.59;3167131;28;19928;-68
2022/07/27 03:14:49;;;;;;;;;;;;;;;23.95;52.82;99104.41;3167055;28;19934;-68
2022/07/27 03:16:20;;;;;;;;;;;;;;;23.92;53.15;99110.06;3171016;28;19947;-69
2022/07/27 03:17:52;;;;;;;;;;;;;;;23.90;52.99;99104.09;3171232;28;19931;-68
2022/07/27 03:19:22;;;;;;;;;;;;;;;23.89;53.13;99107.75;3164561;28;19923;-69
2022/07/27 03:20:54;;;;;;;;;;;;;;;23.87;53.41;99113.28;3160768;28;20421;-69
2022/07/27 03:22:29;;;;;;;;;;;;;;;23.83;53.42;99111.94;3163035;28;20328;-69
2022/07/27 03:24:02;;;;;;;;;;;;;;;23.79;53.92;99115.94;3166523;28;19924;-68
2022/07/27 03:25:34;;;;;;;;;;;;;;;23.74;53.81;99112.97;3161161;28;20370;-68
2022/07/27 03:27:04;;;;;;;;;;;;;;;23.72;54.15;99122.94;3163147;28;19924;-69
2022/07/27 03:28:36;;;;;;;;;;;;;;;23.67;54.40;99123.44;3163197;28;20004;-69
2022/07/27 03:30:08;;;;;;;;;;;;;;;23.62;54.39;99112.47;3168907;28;19930;-69
2022/07/27 03:31:40;;;;;;;;;;;;;;;23.59;54.41;99126.09;3152478;28;20018;-69
2022/07/27 03:33:11;;;;;;;;;;;;;;;23.58;54.43;99137.72;3170680;28;19931;-69
2022/07/27 03:34:43;;;;;;;;;;;;;;;23.54;54.65;99131.91;3169862;28;19923;-70
2022/07/27 03:36:14;;;;;;;;;;;;;;;23.45;55.26;99137.41;3162912;28;20401;-70
2022/07/27 03:37:46;;;;;;;;;;;;;;;23.41;55.04;99133.44;3167200;28;19978;-70
2022/07/27 03:39:18;;;;;;;;;;;;;;;23.36;54.89;99132.09;3171157;28;19927;-70
2022/07/27 03:40:50;;;;;;;;;;;;;;;23.32;55.15;99130.78;3164696;28;19932;-70
2022/07/27 03:42:21;;;;;;;;;;;;;;;23.32;55.12;99136.09;3161621;28;20365;-70
2022/07/27 03:43:53;;;;;;;;;;;;;;;23.30;55.36;99130.09;3165317;28;20462;-70
2022/07/27 03:45:25;;;;;;;;;;;;;;;23.26;55.62;99128.78;3167288;28;19927;-70
2022/07/27 03:46:55;;;;;;;;;;;;;;;23.22;55.74;99139.91;3168230;28;19924;-71
2022/07/27 03:48:27;;;;;;;;;;;;;;;23.20;56.17;99132.13;3167910;28;20296;-70
2022/07/27 03:49:58;;;;;;;;;;;;;;;23.22;55.58;99145.22;3167100;28;20441;-70
2022/07/27 03:51:30;;;;;;;;;;;;;;;23.20;55.98;99148.06;3160974;28;19935;-69
2022/07/27 03:53:01;;;;;;;;;;;;;;;23.24;55.61;99149.38;3160151;28;19947;-70
2022/07/27 03:54:34;;;;;;;;;;;;;;;23.23;55.68;99153.03;3166830;28;19931;-71
2022/07/27 03:56:06;;;;;;;;;;;;;;;23.25;55.47;99143.09;3160973;28;19923;-70
2022/07/27 03:57:37;;;;;;;;;;;;;;;23.29;55.33;99147.06;3168153;28;20343;-69
2022/07/27 03:59:09;;;;;;;;;;;;;;;23.31;55.57;99145.06;3165698;28;19925;-70
2022/07/27 04:00:40;;;;;;;;;;;;;;;23.33;55.60;99147.53;3165072;28;20340;-70
2022/07/27 04:02:12;;;;;;;;;;;;;;;23.24;56.16;99152.03;3166208;28;19924;-70
2022/07/27 04:03:43;;;;;;;;;;;;;;;23.21;55.78;99149.72;3168661;28;19947;-70
2022/07/27 04:05:14;;;;;;;;;;;;;;;23.24;55.50;99154.69;3169473;28;19931;-70
2022/07/27 04:06:46;;;;;;;;;;;;;;;23.24;55.84;99153.88;3169257;28;19931;-69
2022/07/27 04:08:19;;;;;;;;;;;;;;;23.26;55.69;99150.03;3170251;28;20043;-69
2022/07/27 04:09:51;;;;;;;;;;;;;;;23.23;55.77;99153.03;3165513;28;20320;-69
2022/07/27 04:11:23;;;;;;;;;;;;;;;23.24;55.65;99165.31;3158641;28;19927;-69
2022/07/27 04:12:54;;;;;;;;;;;;;;;23.25;55.53;99158.16;3166125;28;19939;-69
2022/07/27 04:14:26;;;;;;;;;;;;;;;23.25;55.71;99155.50;3166000;28;19931;-69
2022/07/27 04:15:57;;;;;;;;;;;;;;;23.21;55.80;99157.69;3165541;28;20388;-69
2022/07/27 04:17:29;;;;;;;;;;;;;;;23.20;55.44;99164.00;3162351;28;19928;-68
2022/07/27 04:19:00;;;;;;;;;;;;;;;23.18;55.36;99155.34;3166299;28;19924;-69
2022/07/27 04:20:32;;;;;;;;;;;;;;;23.20;55.37;99166.66;3162815;28;20411;-69
2022/07/27 04:22:04;;;;;;;;;;;;;;;23.17;55.87;99166.97;3161599;28;19923;-68
2022/07/27 04:23:35;;;;;;;;;;;;;;;23.15;55.58;99168.97;3168057;28;19928;-69
2022/07/27 04:25:08;;;;;;;;;;;;;;;23.14;55.83;99164.66;3163975;28;19924;-69
2022/07/27 04:26:40;;;;;;;;;;;;;;;23.12;55.69;99166.63;3169078;28;19928;-69
2022/07/27 04:28:11;;;;;;;;;;;;;;;23.11;56.01;99167.66;3170337;28;19924;-69
2022/07/27 04:29:43;;;;;;;;;;;;;;;23.10;55.73;99174.78;3170609;28;20404;-69
2022/07/27 04:31:15;;;;;;;;;;;;;;;23.14;55.34;99176.09;3170146;28;19934;-69
2022/07/27 04:32:47;;;;;;;;;;;;;;;23.16;55.47;99176.78;3160546;28;19978;-69
2022/07/27 04:34:19;;;;;;;;;;;;;;;23.11;55.72;99172.97;3159749;28;19932;-69
2022/07/27 04:35:49;;;;;;;;;;;;;;;23.11;55.80;99172.97;3158512;28;19935;-69
2022/07/27 04:37:21;;;;;;;;;;;;;;;23.13;55.53;99177.13;3159313;28;19924;-68
2022/07/27 04:38:52;;;;;;;;;;;;;;;23.17;55.55;99175.78;3152712;28;19924;-68
2022/07/27 04:40:25;;;;;;;;;;;;;;;23.16;55.45;99179.44;3153497;28;20025;-68
2022/07/27 04:41:56;;;;;;;;;;;;;;;23.19;55.43;99180.94;3168128;28;19924;-68
2022/07/27 04:43:28;;;;;;;;;;;;;;;23.25;55.53;99174.09;3168439;28;19928;-68
2022/07/27 04:44:59;;;;;;;;;;;;;;;23.25;55.29;99177.63;3168659;28;19982;-68
2022/07/27 04:46:31;;;;;;;;;;;;;;;23.26;55.23;99179.28;3167805;28;20312;-68
2022/07/27 04:48:05;;;;;;;;;;;;;;;23.29;55.37;99181.59;3168623;28;19924;-69
2022/07/27 04:49:36;;;;;;;;;;;;;;;23.33;55.29;99188.22;3169102;28;19928;-69
2022/07/27 04:51:07;;;;;;;;;;;;;;;23.31;55.12;99187.56;3165852;28;20419;-69
2022/07/27 04:52:38;;;;;;;;;;;;;;;23.33;55.34;99187.41;3163249;28;19924;-69
2022/07/27 04:54:10;;;;;;;;;;;;;;;23.31;55.18;99176.94;3158318;28;19928;-68
2022/07/27 04:55:43;;;;;;;;;;;;;;;23.28;55.66;99177.28;3164435;28;20010;-68
2022/07/27 04:57:14;;;;;;;;;;;;;;;23.28;55.93;99182.59;3167832;28;20324;-68
2022/07/27 04:58:45;;;;;;;;;;;;;;;23.28;55.77;99179.94;3168802;28;19928;-68
2022/07/27 05:00:17;;;;;;;;;;;;;;;23.28;55.82;99190.56;3169266;28;19928;-68
2022/07/27 05:01:48;;;;;;;;;;;;;;;23.27;55.98;99196.84;3154772;28;20324;-68
2022/07/27 05:03:20;;;;;;;;;;;;;;;23.29;56.07;99189.56;3164097;28;19950;-68
2022/07/27 05:04:52;;;;;;;;;;;;;;;23.31;55.94;99194.72;3169105;28;19924;-68
2022/07/27 05:06:23;;;;;;;;;;;;;;;23.30;55.75;99195.69;3163756;28;19928;-68
2022/07/27 05:07:55;;;;;;;;;;;;;;;23.35;55.86;99201.34;3161525;28;19927;-68
2022/07/27 05:09:26;;;;;;;;;;;;;;;23.39;55.75;99200.84;3168051;28;20000;-68
2022/07/27 05:10:59;;;;;;;;;;;;;;;23.47;55.17;99204.50;3158214;28;19928;-67
2022/07/27 05:12:31;;;;;;;;;;;;;;;23.50;55.31;99201.53;3165793;28;20023;-67
2022/07/27 05:14:03;;;;;;;;;;;;;;;23.58;55.00;99198.88;3157811;28;20179;-66
2022/07/27 05:15:34;;;;;;;;;;;;;;;23.65;55.24;99202.50;3161866;28;20437;-67
2022/07/27 05:17:06;;;;;;;;;;;;;;;23.69;54.99;99203.81;3165849;28;20340;-66
2022/07/27 05:18:38;;;;;;;;;;;;;;;23.73;55.16;99201.69;3162316;28;19924;-66
2022/07/27 05:20:10;;;;;;;;;;;;;;;23.77;54.99;99203.84;3166393;28;19928;-66
2022/07/27 05:21:41;;;;;;;;;;;;;;;23.79;55.22;99201.84;3168766;28;19924;-66
2022/07/27 05:23:13;;;;;;;;;;;;;;;23.81;54.99;99207.84;3161883;28;19924;-65
2022/07/27 05:24:45;;;;;;;;;;;;;;;23.87;55.13;99203.69;3171316;28;19927;-66
2022/07/27 05:26:18;;;;;;;;;;;;;;;23.92;54.79;99203.16;3172208;28;19970;-67
2022/07/27 05:27:50;;;;;;;;;;;;;;;24.01;54.56;99202.13;3172634;28;19934;-67
2022/07/27 05:29:21;;;;;;;;;;;;;;;24.07;54.66;99206.78;3171999;28;19928;-66
2022/07/27 05:30:53;;;;;;;;;;;;;;;24.17;54.24;99204.75;3172633;28;20305;-66
2022/07/27 05:32:24;;;;;;;;;;;;;;;24.27;53.80;99202.72;3166275;28;20320;-66
2022/07/27 05:33:56;;;;;;;;;;;;;;;24.38;53.59;99211.34;3166523;28;20346;-66
2022/07/27 05:35:27;;;;;;;;;;;;;;;24.47;53.63;99207.66;3167183;28;20304;-66
2022/07/27 05:36:59;;;;;;;;;;;;;;;24.57;53.47;99210.94;3162331;28;20407;-67
2022/07/27 05:38:33;;;;;;;;;;;;;;;24.64;53.19;99214.59;3160477;28;19943;-66
2022/07/27 05:40:05;;;;;;;;;;;;;;;24.73;53.15;99205.53;3169800;28;19984;-65
2022/07/27 05:41:38;;;;;;;;;;;;;;;24.83;52.60;99207.16;3170604;28;19923;-65
2022/07/27 05:43:10;;;;;;;;;;;;;;;24.91;52.49;99210.59;3171041;28;20368;-66
2022/07/27 05:44:42;;;;;;;;;;;;;;;25.01;52.20;99214.88;3172707;28;19934;-67
2022/07/27 05:46:13;;;;;;;;;;;;;;;25.07;52.33;99212.31;3170526;28;19934;-66
2022/07/27 05:47:45;;;;;;;;;;;;;;;25.15;52.04;99208.81;3169722;28;19979;-66
2022/07/27 05:49:17;;;;;;;;;;;;;;;25.24;52.08;99212.25;3167066;28;19934;-65
2022/07/27 05:50:48;;;;;;;;;;;;;;;25.33;51.49;99220.00;3163897;28;19935;-67
2022/07/27 05:52:20;;;;;;;;;;;;;;;25.45;51.18;99216.91;3160122;28;19935;-68
2022/07/27 05:53:51;;;;;;;;;;;;;;;25.57;51.37;99223.47;3164601;28;20014;-66
2022/07/27 05:55:23;;;;;;;;;;;;;;;25.65;50.68;99218.91;3169451;28;19923;-67
2022/07/27 05:56:56;;;;;;;;;;;;;;;25.75;50.79;99218.63;3165464;28;19982;-67
2022/07/27 05:58:28;;;;;;;;;;;;;;;25.84;50.40;99214.09;3166389;28;19924;-68
2022/07/27 06:00:00;;;;;;;;;;;;;;;25.93;50.23;99212.16;3165695;28;20421;-68
2022/07/27 06:01:31;;;;;;;;;;;;;;;26.02;50.35;99222.56;3165821;27;19924;-69
2022/07/27 06:03:03;;;;;;;;;;;;;;;26.13;50.19;99215.13;3168586;28;19928;-68
2022/07/27 06:04:35;;;;;;;;;;;;;;;26.21;50.20;99217.72;3169585;28;19996;-68
2022/07/27 06:08:07;;;;;;;;;;;;;;;26.33;49.95;99216.22;3168290;28;19924;-68
2022/07/27 06:09:39;;;;;;;;;;;;;;;26.42;49.69;99211.63;3154108;28;19924;-68
2022/07/27 06:11:10;;;;;;;;;;;;;;;26.43;49.33;99198.06;3171372;28;19935;-68
2022/07/27 06:12:44;;;;;;;;;;;;;;;26.57;49.27;99206.28;3171598;28;20002;-68
2022/07/27 06:14:15;;;;;;;;;;;;;;;26.70;49.25;99209.09;3171242;28;19927;-68
2022/07/27 06:15:47;;;;;;;;;;;;;;;26.78;48.79;99201.00;3171318;28;20328;-67
2022/07/27 06:17:19;;;;;;;;;;;;;;;26.88;48.46;99206.84;3172076;28;20320;-67
2022/07/27 06:18:50;;;;;;;;;;;;;;;26.99;48.42;99203.69;3165509;28;20325;-69
2022/07/27 06:20:22;;;;;;;;;;;;;;;27.11;48.18;99203.19;3166385;28;19924;-69
2022/07/27 06:21:54;;;;;;;;;;;;;;;27.19;48.43;99197.75;3167165;28;19924;-70
2022/07/27 06:23:25;;;;;;;;;;;;;;;27.32;47.99;99203.19;3159828;28;20320;-70
2022/07/27 06:24:58;;;;;;;;;;;;;;;27.42;47.98;99197.53;3167437;28;20022;-72
2022/07/27 06:26:29;;;;;;;;;;;;;;;27.52;47.42;99202.56;3169555;28;19924;-70
2022/07/27 06:28:02;;;;;;;;;;;;;;;27.61;46.92;99202.22;3169104;28;20320;-70
2022/07/27 06:29:34;;;;;;;;;;;;;;;27.71;47.42;99204.53;3168834;28;20392;-71
2022/07/27 06:31:06;;;;;;;;;;;;;;;27.79;46.82;99199.09;3169126;28;19924;-71
2022/07/27 06:32:37;;;;;;;;;;;;;;;27.87;46.44;99196.25;3169853;28;19935;-71
2022/07/27 06:34:09;;;;;;;;;;;;;;;27.99;46.47;99206.44;3165747;28;19935;-71
2022/07/27 06:35:41;;;;;;;;;;;;;;;28.07;46.41;99196.41;3170329;28;19950;-70
2022/07/27 06:37:12;;;;;;;;;;;;;;;28.16;46.20;99207.78;3168902;28;19923;-72
2022/07/27 06:38:44;;;;;;;;;;;;;;;28.24;45.81;99202.22;3163062;28;19931;-71
2022/07/27 06:40:15;;;;;;;;;;;;;;;28.35;45.37;99207.03;3169842;28;19928;-72
2022/07/27 06:41:47;;;;;;;;;;;;;;;28.44;45.41;99199.69;3167317;28;19950;-69
2022/07/27 06:43:21;;;;;;;;;;;;;;;28.55;45.29;99204.47;3166886;28;19978;-72
2022/07/27 06:44:53;;;;;;;;;;;;;;;28.68;44.55;99200.19;3166720;28;19924;-72
2022/07/27 06:46:25;;;;;;;;;;;;;;;28.80;44.52;99204.75;3164004;28;19923;-71
2022/07/27 06:47:56;;;;;;;;;;;;;;;28.89;44.61;99200.03;3167515;28;19930;-71
2022/07/27 06:49:28;;;;;;;;;;;;;;;28.97;43.86;99204.41;3168169;28;19923;-70
2022/07/27 06:50:59;;;;;;;;;;;;;;;29.03;44.08;99199.06;3165159;28;19931;-69
2022/07/27 06:52:31;;;;;;;;;;;;;;;29.12;43.93;99193.53;3160698;28;19931;-69
2022/07/27 06:54:03;;;;;;;;;;;;;;;29.21;43.27;99187.75;3159876;28;19936;-70
2022/07/27 06:55:35;;;;;;;;;;;;;;;29.36;43.08;99189.41;3166498;28;19927;-70
2022/07/27 06:57:07;;;;;;;;;;;;;;;29.47;43.42;99186.13;3167322;28;19923;-69
2022/07/27 06:58:40;;;;;;;;;;;;;;;29.58;43.01;99177.47;3167772;28;19924;-70
2022/07/27 07:00:12;;;;;;;;;;;;;;;29.66;42.25;99181.81;3162667;28;19928;-69
2022/07/27 07:01:44;;;;;;;;;;;;;;;29.75;42.19;99185.09;3163412;28;19946;-70
2022/07/27 07:03:15;;;;;;;;;;;;;;;29.82;41.59;99181.38;3169245;28;19978;-70
2022/07/27 07:04:47;;;;;;;;;;;;;;;29.91;41.41;99182.00;3165217;28;19924;-71
2022/07/27 07:06:18;;;;;;;;;;;;;;;29.97;41.45;99181.16;3170624;28;19924;-71
2022/07/27 07:07:50;;;;;;;;;;;;;;;30.04;41.58;99181.94;3160521;28;20289;-71
2022/07/27 07:09:21;;;;;;;;;;;;;;;30.10;41.64;99173.03;3172034;28;19953;-73
2022/07/27 07:10:54;;;;;;;;;;;;;;;30.16;40.98;99174.88;3171636;28;19923;-73
2022/07/27 07:12:27;;;;;;;;;;;;;;;30.18;41.26;99179.22;3165180;28;19928;-71
2022/07/27 07:14:00;;;;;;;;;;;;;;;30.24;40.97;99179.25;3165557;28;20411;-72
2022/07/27 07:15:31;;;;;;;;;;;;;;;30.29;40.71;99176.75;3166032;28;19923;-70
2022/07/27 07:17:03;;;;;;;;;;;;;;;30.31;40.65;99174.66;3166951;28;19924;-70
2022/07/27 07:18:35;;;;;;;;;;;;;;;30.35;40.83;99177.75;3166355;28;19977;-70
2022/07/27 07:20:08;;;;;;;;;;;;;;;30.38;40.24;99177.34;3167413;28;19924;-69
2022/07/27 07:21:39;;;;;;;;;;;;;;;30.41;40.51;99171.53;3168748;28;19932;-71
2022/07/27 07:23:11;;;;;;;;;;;;;;;30.45;40.76;99180.00;3159758;28;19924;-72
2022/07/27 07:24:43;;;;;;;;;;;;;;;30.50;40.26;99172.94;3170320;28;19975;-68
2022/07/27 07:26:14;;;;;;;;;;;;;;;30.56;39.64;99168.56;3169397;28;19928;-70
2022/07/27 07:27:46;;;;;;;;;;;;;;;30.62;39.94;99166.91;3161805;28;19928;-69
2022/07/27 07:29:19;;;;;;;;;;;;;;;30.67;39.79;99165.19;3170413;28;19984;-69
2022/07/27 07:30:51;;;;;;;;;;;;;;;30.70;39.02;99170.13;3170604;28;20415;-69
2022/07/27 07:32:23;;;;;;;;;;;;;;;30.72;39.19;99168.06;3164513;28;19931;-68
2022/07/27 07:33:55;;;;;;;;;;;;;;;30.75;38.84;99169.50;3165758;28;19981;-69
2022/07/27 07:35:27;;;;;;;;;;;;;;;30.73;38.92;99166.19;3166431;28;19924;-70
2022/07/27 07:36:58;;;;;;;;;;;;;;;30.74;39.06;99170.53;3167181;28;19975;-68
2022/07/27 07:38:30;;;;;;;;;;;;;;;30.75;38.85;99162.25;3159255;28;19931;-66
2022/07/27 07:40:02;;;;;;;;;;;;;;;30.80;38.97;99162.47;3168055;28;19935;-69
2022/07/27 07:41:35;;;;;;;;;;;;;;;30.87;38.58;99159.72;3167596;28;19924;-71
2022/07/27 07:43:06;;;;;;;;;;;;;;;30.91;38.47;99160.97;3167104;28;19950;-69
2022/07/27 07:44:39;;;;;;;;;;;;;;;30.95;38.67;99158.66;3167901;28;20469;-67
2022/07/27 07:46:11;;;;;;;;;;;;;;;30.97;38.43;99157.41;3166797;28;19924;-67
2022/07/27 07:47:42;;;;;;;;;;;;;;;31.03;38.27;99155.72;3168756;28;19924;-67
2022/07/27 07:49:14;;;;;;;;;;;;;;;31.05;37.94;99135.59;3169541;28;20290;-67
2022/07/27 07:50:46;;;;;;;;;;;;;;;31.16;37.93;99144.84;3169754;28;19924;-69
2022/07/27 07:52:17;;;;;;;;;;;;;;;31.30;37.57;99148.25;3161467;28;19931;-70
2022/07/27 07:53:49;;;;;;;;;;;;;;;31.39;37.47;99151.53;3159297;28;19924;-70
2022/07/27 07:55:21;;;;;;;;;;;;;;;31.51;37.39;99152.44;3163429;28;19936;-70
2022/07/27 07:56:53;;;;;;;;;;;;;;;31.67;37.29;99149.16;3168983;28;19924;-70
2022/07/27 07:58:24;;;;;;;;;;;;;;;31.83;36.80;99152.34;3159356;28;19988;-68
2022/07/27 07:59:57;;;;;;;;;;;;;;;31.94;35.83;99141.66;3165117;28;19923;-68
2022/07/27 08:01:29;;;;;;;;;;;;;;;32.12;35.62;99142.72;3168985;28;19935;-68